Magnolia, MS

10:55 PM CST on February 28, 2015 (GMT -0600)
Carr Memorial | Change Station
CLOSE
Current Station
Airport
Location: Bogalusa,
Elevation: 118 ft
Nearby Weather Stations

Elev 118 ft 30.81 °N, 89.86 °W | Updated 20 minutes ago

Overcast
Overcast
56 °F
Feels Like 56 °F
N
0
Wind Variable Wind from North
Gusts 6 mph

Today
High -- | Low -- °F
--% Chance of Precip.
Yesterday
High -- | Low -- °F
Precip. -- in
6:29 AM 5:59 PM
Waxing Gibbous, 82% visible
Pressure 30.38 in
Visibility 10.0 miles
Clouds
Dew Point 50 °F
Humidity 78%
Rainfall 0.00 in
Snow Depth Not available.
UV Not available.
Pollen 9.00 out of 12
Air Quality Not available.
Flu Activity Not available.
METAR KBXA 010435Z AUTO 00000KT 10SM 14/10 A3038 RMK AO2 T01350097

More Conditions Fewer Conditions

Pressure 30.38 in
Visibility 10.0 miles
Clouds
Dew Point 50 °F
Humidity 78%
Rainfall 0.00 in
Snow Depth Not available.
UV Not available.
Pollen 9.00 out of 12
Air Quality Not available.
Flu Activity Not available.
METAR KBXA 010435Z AUTO 00000KT 10SM 14/10 A3038 RMK AO2 T01350097

More Conditions Fewer Conditions

10-Day Weather Forecast

Almanac

Astronomy

Feb. 28, 2015 Rise Set
Actual Time
Civil Twilight
Nautical Twilight
Astronomical Twilight
Moon
Length of Visible Light
Length of Day
Tomorrow will be .
, % of the Moon is Illuminated

Today's Extremes

State Highs State Lows

Community

WunderPhotos

Upload Photos

1,801,320 photos uploaded!

WunderBlogs® & News

Nearby

Air Quality

  Air Quality AQ Index Pollutant
Not available.

Snow Depth

Station Depth Elevation

Earthquake Activity

City Distance Mag. Time & Date
Minimum magnitude displayed is 2.5.

Coastal Water Temperatures

Place Temperature

Nearby Weather Stations